Time,TemperatureF,DewpointF,PressureIn,WindDirection,WindDirectionDegrees,WindSpeedMPH,WindSpeedGustMPH,Humidity,HourlyPrecipIn,Conditions,Clouds,dailyrainin,SoftwareType,DateUTC
2013-04-03 00:00:00,29.8,16.4,29.87,SSW,207,0.0,1.0,57,0.00,,,0.00,Wunderground v.1.15,2013-04-03 04:00:00,
2013-04-03 00:02:00,29.8,16.4,29.87,SSW,208,6.0,6.0,57,0.00,,,0.00,Wunderground v.1.15,2013-04-03 04:02:00,
2013-04-03 00:03:00,29.7,16.3,29.87,WSW,241,0.0,6.0,57,0.00,,,0.00,Wunderground v.1.15,2013-04-03 04:03:00,
2013-04-03 00:08:00,29.5,18.1,29.87,SSE,148,6.0,6.0,62,0.00,,,0.00,Wunderground v.1.15,2013-04-03 04:08:00,
2013-04-03 00:13:00,29.4,16.8,29.87,SW,227,1.0,6.0,59,0.00,,,0.00,Wunderground v.1.15,2013-04-03 04:13:00,
2013-04-03 00:19:00,29.4,17.6,29.87,SSW,198,0.0,2.0,61,0.00,,,0.00,Wunderground v.1.15,2013-04-03 04:19:00,
2013-04-03 00:25:00,29.3,17.5,29.87,SSW,204,0.0,1.0,61,0.00,,,0.00,Wunderground v.1.15,2013-04-03 04:25:00,
2013-04-03 00:31:00,29.0,18.7,29.87,SSW,206,0.0,2.0,65,0.00,,,0.00,Wunderground v.1.15,2013-04-03 04:31:00,
2013-04-03 00:36:00,28.8,18.1,29.87,SW,214,1.0,1.0,64,0.00,,,0.00,Wunderground v.1.15,2013-04-03 04:36:00,
2013-04-03 00:42:00,29.0,18.0,29.87,SSW,196,0.0,1.0,63,0.00,,,0.00,Wunderground v.1.15,2013-04-03 04:42:00,
2013-04-03 00:47:00,28.8,18.1,29.87,SSE,155,1.0,1.0,64,0.00,,,0.00,Wunderground v.1.15,2013-04-03 04:47:00,
2013-04-03 00:53:00,28.8,17.8,29.87,SW,221,1.0,2.0,63,0.00,,,0.00,Wunderground v.1.15,2013-04-03 04:53:00,
2013-04-03 00:59:00,28.8,17.4,29.87,SW,228,2.0,4.0,62,0.00,,,0.00,Wunderground v.1.15,2013-04-03 04:59:00,
2013-04-03 01:04:00,28.8,17.0,29.87,SSW,197,1.0,4.0,61,0.00,,,0.00,Wunderground v.1.15,2013-04-03 05:04:00,
2013-04-03 01:10:00,28.8,17.0,29.87,WSW,246,0.0,2.0,61,0.00,,,0.00,Wunderground v.1.15,2013-04-03 05:10:00,
2013-04-03 01:15:00,28.7,16.6,29.87,South,169,0.0,2.0,60,0.00,,,0.00,Wunderground v.1.15,2013-04-03 05:15:00,
2013-04-03 01:20:00,28.7,16.6,29.87,SW,230,0.0,4.0,60,0.00,,,0.00,Wunderground v.1.15,2013-04-03 05:20:00,
2013-04-03 01:27:00,28.7,15.4,29.87,South,182,2.0,2.0,57,0.00,,,0.00,Wunderground v.1.15,2013-04-03 05:27:00,
2013-04-03 01:32:00,28.7,13.7,29.87,SW,230,0.0,6.0,53,0.00,,,0.00,Wunderground v.1.15,2013-04-03 05:32:00,
2013-04-03 01:37:00,28.7,15.4,29.87,SW,220,0.0,2.0,57,0.00,,,0.00,Wunderground v.1.15,2013-04-03 05:37:00,
2013-04-03 01:43:00,28.5,15.2,29.88,WSW,246,1.0,2.0,57,0.00,,,0.00,Wunderground v.1.15,2013-04-03 05:43:00,
2013-04-03 01:48:00,28.4,15.1,29.88,SW,215,1.0,4.0,57,0.00,,,0.00,Wunderground v.1.15,2013-04-03 05:48:00,
2013-04-03 01:54:00,28.4,14.3,29.88,SW,230,2.0,8.0,55,0.00,,,0.00,Wunderground v.1.15,2013-04-03 05:54:00,
2013-04-03 01:59:00,28.4,14.3,29.88,South,179,0.0,2.0,55,0.00,,,0.00,Wunderground v.1.15,2013-04-03 05:59:00,
2013-04-03 02:04:00,28.4,13.9,29.88,SW,214,4.0,4.0,54,0.00,,,0.00,Wunderground v.1.15,2013-04-03 06:04:00,
2013-04-03 02:09:00,28.4,12.6,29.88,SW,235,2.0,6.0,51,0.00,,,0.00,Wunderground v.1.15,2013-04-03 06:09:00,
2013-04-03 02:14:00,28.5,12.6,29.87,WSW,251,1.0,6.0,51,0.00,,,0.00,Wunderground v.1.15,2013-04-03 06:14:00,
2013-04-03 02:19:00,28.4,12.6,29.87,SW,215,2.0,7.0,51,0.00,,,0.00,Wunderground v.1.15,2013-04-03 06:19:00,
2013-04-03 02:24:00,28.5,12.2,29.87,WSW,239,1.0,7.0,50,0.00,,,0.00,Wunderground v.1.15,2013-04-03 06:24:00,
2013-04-03 02:29:00,28.5,13.5,29.88,WSW,237,0.0,6.0,53,0.00,,,0.00,Wunderground v.1.15,2013-04-03 06:29:00,
2013-04-03 02:34:00,28.2,12.4,29.88,SSW,206,2.0,6.0,51,0.00,,,0.00,Wunderground v.1.15,2013-04-03 06:34:00,
2013-04-03 02:40:00,28.2,11.5,29.88,WSW,248,4.0,4.0,49,0.00,,,0.00,Wunderground v.1.15,2013-04-03 06:40:00,
2013-04-03 02:45:00,28.4,11.2,29.88,ESE,121,0.0,4.0,48,0.00,,,0.00,Wunderground v.1.15,2013-04-03 06:45:00,
2013-04-03 02:50:00,28.4,11.2,29.88,West,275,1.0,4.0,48,0.00,,,0.00,Wunderground v.1.15,2013-04-03 06:50:00,
2013-04-03 02:55:00,28.2,13.7,29.88,SSW,198,0.0,4.0,54,0.00,,,0.00,Wunderground v.1.15,2013-04-03 06:55:00,
2013-04-03 03:00:00,28.1,13.1,29.88,SW,234,0.0,2.0,53,0.00,,,0.00,Wunderground v.1.15,2013-04-03 07:00:00,
2013-04-03 03:05:00,28.1,13.1,29.88,SW,232,2.0,2.0,53,0.00,,,0.00,Wunderground v.1.15,2013-04-03 07:05:00,
2013-04-03 03:10:00,28.1,13.6,29.88,SSW,210,0.0,4.0,54,0.00,,,0.00,Wunderground v.1.15,2013-04-03 07:10:00,
2013-04-03 03:16:00,27.9,13.4,29.87,SW,218,1.0,2.0,54,0.00,,,0.00,Wunderground v.1.15,2013-04-03 07:16:00,
2013-04-03 03:21:00,27.8,13.7,29.87,SSW,210,2.0,2.0,55,0.00,,,0.00,Wunderground v.1.15,2013-04-03 07:21:00,
2013-04-03 03:26:00,27.8,12.4,29.87,South,173,0.0,2.0,52,0.00,,,0.00,Wunderground v.1.15,2013-04-03 07:26:00,
2013-04-03 03:31:00,27.8,12.9,29.88,WSW,244,0.0,7.0,53,0.00,,,0.00,Wunderground v.1.15,2013-04-03 07:31:00,
2013-04-03 03:36:00,27.6,14.3,29.88,WSW,242,1.0,6.0,57,0.00,,,0.00,Wunderground v.1.15,2013-04-03 07:36:00,
2013-04-03 03:42:00,27.6,12.7,29.88,SW,218,0.0,6.0,53,0.00,,,0.00,Wunderground v.1.15,2013-04-03 07:42:00,
2013-04-03 03:47:00,27.6,11.4,29.88,SSW,210,0.0,2.0,50,0.00,,,0.00,Wunderground v.1.15,2013-04-03 07:47:00,
2013-04-03 03:52:00,27.5,13.0,29.88,WSW,239,0.0,2.0,54,0.00,,,0.00,Wunderground v.1.15,2013-04-03 07:52:00,
2013-04-03 03:57:00,27.5,11.7,29.88,SSW,213,1.0,2.0,51,0.00,,,0.00,Wunderground v.1.15,2013-04-03 07:57:00,
2013-04-03 04:02:00,27.5,11.3,29.88,SSW,213,0.0,2.0,50,0.00,,,0.00,Wunderground v.1.15,2013-04-03 08:02:00,
2013-04-03 04:07:00,27.3,12.0,29.88,SW,220,0.0,1.0,52,0.00,,,0.00,Wunderground v.1.15,2013-04-03 08:07:00,
2013-04-03 04:12:00,27.2,11.9,29.88,SW,220,0.0,2.0,52,0.00,,,0.00,Wunderground v.1.15,2013-04-03 08:12:00,
2013-04-03 04:17:00,27.0,12.1,29.88,SW,225,0.0,1.0,53,0.00,,,0.00,Wunderground v.1.15,2013-04-03 08:17:00,
2013-04-03 04:22:00,26.7,13.5,29.88,SW,221,0.0,1.0,57,0.00,,,0.00,Wunderground v.1.15,2013-04-03 08:22:00,
2013-04-03 04:27:00,26.7,11.4,29.89,SSE,148,1.0,2.0,52,0.00,,,0.00,Wunderground v.1.15,2013-04-03 08:27:00,
2013-04-03 04:33:00,27.0,12.5,29.89,South,182,1.0,2.0,54,0.00,,,0.00,Wunderground v.1.15,2013-04-03 08:33:00,
2013-04-03 04:38:00,27.0,11.3,29.89,SSW,211,2.0,2.0,51,0.00,,,0.00,Wunderground v.1.15,2013-04-03 08:38:00,
2013-04-03 04:43:00,26.9,12.9,29.89,South,182,0.0,2.0,55,0.00,,,0.00,Wunderground v.1.15,2013-04-03 08:43:00,
2013-04-03 04:49:00,26.7,11.0,29.89,South,182,1.0,1.0,51,0.00,,,0.00,Wunderground v.1.15,2013-04-03 08:49:00,
2013-04-03 04:54:00,26.7,11.0,29.89,South,182,1.0,1.0,51,0.00,,,0.00,Wunderground v.1.15,2013-04-03 08:54:00,
2013-04-03 04:59:00,26.6,11.7,29.89,SW,214,2.0,2.0,53,0.00,,,0.00,Wunderground v.1.15,2013-04-03 08:59:00,
2013-04-03 05:04:00,26.7,11.8,29.89,SW,214,0.0,2.0,53,0.00,,,0.00,Wunderground v.1.15,2013-04-03 09:04:00,
2013-04-03 05:09:00,26.7,12.3,29.89,SW,214,2.0,2.0,54,0.00,,,0.00,Wunderground v.1.15,2013-04-03 09:09:00,
2013-04-03 05:14:00,26.7,11.8,29.89,SW,220,0.0,4.0,53,0.00,,,0.00,Wunderground v.1.15,2013-04-03 09:14:00,
2013-04-03 05:19:00,26.7,11.8,29.89,South,183,2.0,2.0,53,0.00,,,0.00,Wunderground v.1.15,2013-04-03 09:19:00,
2013-04-03 05:24:00,26.7,11.4,29.89,South,186,0.0,2.0,52,0.00,,,0.00,Wunderground v.1.15,2013-04-03 09:24:00,
2013-04-03 05:30:00,26.6,12.2,29.89,WSW,238,0.0,4.0,54,0.00,,,0.00,Wunderground v.1.15,2013-04-03 09:30:00,
2013-04-03 05:35:00,26.6,12.2,29.89,SW,217,0.0,4.0,54,0.00,,,0.00,Wunderground v.1.15,2013-04-03 09:35:00,
2013-04-03 05:40:00,26.6,13.0,29.89,SSW,211,1.0,1.0,56,0.00,,,0.00,Wunderground v.1.15,2013-04-03 09:40:00,
2013-04-03 05:45:00,26.4,12.8,29.90,SSW,213,2.0,2.0,56,0.00,,,0.00,Wunderground v.1.15,2013-04-03 09:45:00,
2013-04-03 05:50:00,26.1,12.5,29.90,WNW,282,0.0,2.0,56,0.00,,,0.00,Wunderground v.1.15,2013-04-03 09:50:00,
2013-04-03 05:55:00,26.1,12.1,29.90,WSW,254,0.0,2.0,55,0.00,,,0.00,Wunderground v.1.15,2013-04-03 09:55:00,
2013-04-03 06:01:00,26.1,12.5,29.90,WSW,255,0.0,2.0,56,0.00,,,0.00,Wunderground v.1.15,2013-04-03 10:01:00,
2013-04-03 06:06:00,26.1,11.7,29.90,WSW,254,1.0,1.0,54,0.00,,,0.00,Wunderground v.1.15,2013-04-03 10:06:00,
2013-04-03 06:12:00,26.1,12.5,29.91,SSW,200,0.0,1.0,56,0.00,,,0.00,Wunderground v.1.15,2013-04-03 10:12:00,
2013-04-03 06:17:00,26.3,12.3,29.91,South,174,0.0,1.0,55,0.00,,,0.00,Wunderground v.1.15,2013-04-03 10:17:00,
2013-04-03 06:22:00,26.3,11.0,29.91,SSW,201,1.0,6.0,52,0.00,,,0.00,Wunderground v.1.15,2013-04-03 10:22:00,
2013-04-03 06:27:00,26.6,10.4,29.92,SW,220,1.0,6.0,50,0.00,,,0.00,Wunderground v.1.15,2013-04-03 10:27:00,
2013-04-03 06:32:00,26.6,10.4,29.92,South,182,0.0,6.0,50,0.00,,,0.00,Wunderground v.1.15,2013-04-03 10:32:00,
2013-04-03 06:37:00,26.6,10.9,29.92,South,190,1.0,2.0,51,0.00,,,0.00,Wunderground v.1.15,2013-04-03 10:37:00,
2013-04-03 06:42:00,26.6,10.9,29.92,SSW,201,0.0,2.0,51,0.00,,,0.00,Wunderground v.1.15,2013-04-03 10:42:00,
2013-04-03 06:48:00,26.6,10.9,29.92,South,169,0.0,1.0,51,0.00,,,0.00,Wunderground v.1.15,2013-04-03 10:48:00,
2013-04-03 06:53:00,26.6,10.4,29.92,SE,146,0.0,1.0,50,0.00,,,0.00,Wunderground v.1.15,2013-04-03 10:53:00,
2013-04-03 06:58:00,26.4,10.7,29.92,SE,138,0.0,2.0,51,0.00,,,0.00,Wunderground v.1.15,2013-04-03 10:58:00,
2013-04-03 07:03:00,26.4,10.7,29.92,SE,129,0.0,2.0,51,0.00,,,0.00,Wunderground v.1.15,2013-04-03 11:03:00,
2013-04-03 07:08:00,26.4,10.7,29.92,SE,129,1.0,1.0,51,0.00,,,0.00,Wunderground v.1.15,2013-04-03 11:08:00,
2013-04-03 07:13:00,26.4,11.1,29.93,SE,131,0.0,1.0,52,0.00,,,0.00,Wunderground v.1.15,2013-04-03 11:13:00,
2013-04-03 07:18:00,26.6,11.3,29.93,SSE,159,0.0,1.0,52,0.00,,,0.00,Wunderground v.1.15,2013-04-03 11:18:00,
2013-04-03 07:23:00,26.6,11.3,29.93,SW,228,4.0,4.0,52,0.00,,,0.00,Wunderground v.1.15,2013-04-03 11:23:00,
2013-04-03 07:29:00,26.7,11.4,29.93,WSW,237,0.0,4.0,52,0.00,,,0.00,Wunderground v.1.15,2013-04-03 11:29:00,
2013-04-03 07:34:00,26.9,12.9,29.93,WSW,237,0.0,4.0,55,0.00,,,0.00,Wunderground v.1.15,2013-04-03 11:34:00,
2013-04-03 07:39:00,27.0,12.5,29.93,SW,225,4.0,4.0,54,0.00,,,0.00,Wunderground v.1.15,2013-04-03 11:39:00,
2013-04-03 07:44:00,27.2,13.1,29.94,SW,232,1.0,4.0,55,0.00,,,0.00,Wunderground v.1.15,2013-04-03 11:44:00,
2013-04-03 07:49:00,27.3,11.5,29.94,West,280,2.0,4.0,51,0.00,,,0.00,Wunderground v.1.15,2013-04-03 11:49:00,
2013-04-03 07:55:00,27.5,11.7,29.94,SW,231,2.0,4.0,51,0.00,,,0.00,Wunderground v.1.15,2013-04-03 11:55:00,
2013-04-03 08:00:00,27.6,11.8,29.93,WSW,239,4.0,7.0,51,0.00,,,0.00,Wunderground v.1.15,2013-04-03 12:00:00,
2013-04-03 08:05:00,27.8,12.9,29.93,SW,222,1.0,3.0,53,0.00,,,0.00,Wunderground v.1.15,2013-04-03 12:05:00,
2013-04-03 08:10:00,28.1,12.3,29.93,West,276,4.0,8.0,51,0.00,,,0.00,Wunderground v.1.15,2013-04-03 12:10:00,
2013-04-03 08:15:00,28.2,11.9,29.93,West,280,1.0,3.0,50,0.00,,,0.00,Wunderground v.1.15,2013-04-03 12:15:00,
2013-04-03 08:20:00,28.4,12.1,29.93,West,266,4.0,4.0,50,0.00,,,0.00,Wunderground v.1.15,2013-04-03 12:20:00,
2013-04-03 08:26:00,28.5,12.6,29.93,SW,231,1.0,2.0,51,0.00,,,0.00,Wunderground v.1.15,2013-04-03 12:26:00,
2013-04-03 08:31:00,28.7,12.8,29.93,West,269,4.0,6.0,51,0.00,,,0.00,Wunderground v.1.15,2013-04-03 12:31:00,
2013-04-03 08:37:00,28.8,12.9,29.93,SW,231,1.0,4.0,51,0.00,,,0.00,Wunderground v.1.15,2013-04-03 12:37:00,
2013-04-03 08:42:00,29.1,13.2,29.93,SW,225,1.0,4.0,51,0.00,,,0.00,Wunderground v.1.15,2013-04-03 12:42:00,
2013-04-03 08:47:00,29.3,12.5,29.93,WSW,248,0.0,4.0,49,0.00,,,0.00,Wunderground v.1.15,2013-04-03 12:47:00,
2013-04-03 08:52:00,29.4,12.6,29.93,SW,232,2.0,4.0,49,0.00,,,0.00,Wunderground v.1.15,2013-04-03 12:52:00,
2013-04-03 08:57:00,29.7,13.3,29.93,WSW,258,9.0,9.0,50,0.00,,,0.00,Wunderground v.1.15,2013-04-03 12:57:00,
2013-04-03 09:02:00,29.8,12.5,29.93,WSW,255,2.0,9.0,48,0.00,,,0.00,Wunderground v.1.15,2013-04-03 13:02:00,
2013-04-03 09:07:00,30.0,10.2,29.93,WSW,241,2.0,8.0,43,0.00,,,0.00,Wunderground v.1.15,2013-04-03 13:07:00,
2013-04-03 09:13:00,30.0,12.2,29.93,WSW,258,1.0,8.0,47,0.00,,,0.00,Wunderground v.1.15,2013-04-03 13:13:00,
2013-04-03 09:18:00,30.3,12.9,29.93,SW,234,1.0,4.0,48,0.00,,,0.00,Wunderground v.1.15,2013-04-03 13:18:00,
2013-04-03 09:23:00,30.6,13.7,29.93,SW,218,4.0,4.0,49,0.00,,,0.00,Wunderground v.1.15,2013-04-03 13:23:00,
2013-04-03 09:29:00,30.7,10.8,29.92,WSW,239,4.0,8.0,43,0.00,,,0.00,Wunderground v.1.15,2013-04-03 13:29:00,
2013-04-03 09:34:00,30.9,12.5,29.92,SW,217,6.0,9.0,46,0.00,,,0.00,Wunderground v.1.15,2013-04-03 13:34:00,
2013-04-03 09:39:00,31.0,10.0,29.92,WSW,245,8.0,8.0,41,0.00,,,0.00,Wunderground v.1.15,2013-04-03 13:39:00,
2013-04-03 09:44:00,31.2,11.3,29.92,SW,215,4.0,8.0,43,0.00,,,0.00,Wunderground v.1.15,2013-04-03 13:44:00,
2013-04-03 09:49:00,31.3,10.3,29.92,West,261,4.0,7.0,41,0.00,,,0.00,Wunderground v.1.15,2013-04-03 13:49:00,
2013-04-03 09:54:00,31.8,12.3,29.92,WSW,244,4.0,8.0,44,0.00,,,0.00,Wunderground v.1.15,2013-04-03 13:54:00,
2013-04-03 10:00:00,31.9,10.3,29.92,WSW,256,6.0,9.0,40,0.00,,,0.00,Wunderground v.1.15,2013-04-03 14:00:00,
2013-04-03 10:05:00,32.2,12.2,29.92,SW,225,0.0,9.0,43,0.00,,,0.00,Wunderground v.1.15,2013-04-03 14:05:00,
2013-04-03 10:10:00,32.5,13.5,29.92,WSW,237,6.0,8.0,45,0.00,,,0.00,Wunderground v.1.15,2013-04-03 14:10:00,
2013-04-03 10:15:00,32.8,11.1,29.92,SE,126,2.0,4.0,40,0.00,,,0.00,Wunderground v.1.15,2013-04-03 14:15:00,
2013-04-03 10:20:00,33.1,13.0,29.92,SW,220,2.0,7.0,43,0.00,,,0.00,Wunderground v.1.15,2013-04-03 14:20:00,
2013-04-03 10:25:00,33.1,9.6,29.92,SW,227,4.0,4.0,37,0.00,,,0.00,Wunderground v.1.15,2013-04-03 14:25:00,
2013-04-03 10:30:00,33.4,9.9,29.92,WSW,242,0.0,6.0,37,0.00,,,0.00,Wunderground v.1.15,2013-04-03 14:30:00,
2013-04-03 10:35:00,33.5,12.3,29.92,SW,234,0.0,1.0,41,0.00,,,0.00,Wunderground v.1.15,2013-04-03 14:35:00,
2013-04-03 10:41:00,33.8,12.6,29.92,SSW,204,0.0,1.0,41,0.00,,,0.00,Wunderground v.1.15,2013-04-03 14:41:00,
2013-04-03 10:46:00,34.1,10.5,29.92,SW,232,0.0,0.0,37,0.00,,,0.00,Wunderground v.1.15,2013-04-03 14:46:00,
2013-04-03 10:51:00,34.7,10.4,29.92,SW,222,0.0,0.0,36,0.00,,,0.00,Wunderground v.1.15,2013-04-03 14:51:00,
2013-04-03 10:56:00,34.9,10.6,29.92,SSW,210,0.0,0.0,36,0.00,,,0.00,Wunderground v.1.15,2013-04-03 14:56:00,
2013-04-03 11:01:00,35.3,14.5,29.92,SW,222,0.0,0.0,42,0.00,,,0.00,Wunderground v.1.15,2013-04-03 15:01:00,
2013-04-03 11:07:00,35.3,12.2,29.92,West,278,0.0,0.0,38,0.00,,,0.00,Wunderground v.1.15,2013-04-03 15:07:00,
2013-04-03 11:12:00,35.6,13.6,29.93,SW,214,0.0,0.0,40,0.00,,,0.00,Wunderground v.1.15,2013-04-03 15:12:00,
2013-04-03 11:17:00,35.6,11.9,29.93,SW,231,0.0,0.0,37,0.00,,,0.00,Wunderground v.1.15,2013-04-03 15:17:00,
2013-04-03 11:23:00,36.2,13.6,29.93,West,273,0.0,0.0,39,0.00,,,0.00,Wunderground v.1.15,2013-04-03 15:23:00,
2013-04-03 11:28:00,36.3,13.1,29.92,NNE,26,0.0,0.0,38,0.00,,,0.00,Wunderground v.1.15,2013-04-03 15:28:00,
2013-04-03 11:33:00,36.3,13.1,29.92,South,180,0.0,0.0,38,0.00,,,0.00,Wunderground v.1.15,2013-04-03 15:33:00,
2013-04-03 11:38:00,36.8,11.7,29.92,WSW,238,0.0,0.0,35,0.00,,,0.00,Wunderground v.1.15,2013-04-03 15:38:00,
2013-04-03 11:43:00,37.0,9.8,29.92,SW,231,0.0,0.0,32,0.00,,,0.00,Wunderground v.1.15,2013-04-03 15:43:00,
2013-04-03 11:49:00,37.3,11.5,29.92,WSW,244,0.0,0.0,34,0.00,,,0.00,Wunderground v.1.15,2013-04-03 15:49:00,
2013-04-03 11:54:00,38.2,10.2,29.92,WSW,256,0.0,0.0,31,0.00,,,0.00,Wunderground v.1.15,2013-04-03 15:54:00,
2013-04-03 11:59:00,38.3,12.3,29.92,WSW,241,0.0,0.0,34,0.00,,,0.00,Wunderground v.1.15,2013-04-03 15:59:00,
2013-04-03 12:04:00,38.5,12.5,29.92,WSW,237,6.0,6.0,34,0.00,,,0.00,Wunderground v.1.15,2013-04-03 16:04:00,
2013-04-03 12:09:00,38.2,11.6,29.92,SW,231,2.0,7.0,33,0.00,,,0.00,Wunderground v.1.15,2013-04-03 16:09:00,
2013-04-03 12:14:00,38.2,10.2,29.92,SSW,206,2.0,9.0,31,0.00,,,0.00,Wunderground v.1.15,2013-04-03 16:14:00,
2013-04-03 12:19:00,38.9,10.1,29.92,SSE,166,0.0,8.0,30,0.00,,,0.00,Wunderground v.1.15,2013-04-03 16:19:00,
2013-04-03 12:24:00,38.5,10.4,29.92,SSW,203,6.0,10.0,31,0.00,,,0.00,Wunderground v.1.15,2013-04-03 16:24:00,
2013-04-03 12:30:00,38.2,7.9,29.93,West,263,2.0,9.0,28,0.00,,,0.00,Wunderground v.1.15,2013-04-03 16:30:00,
2013-04-03 12:35:00,39.3,11.9,29.93,WNW,287,4.0,5.0,32,0.00,,,0.00,Wunderground v.1.15,2013-04-03 16:35:00,
2013-04-03 12:40:00,39.3,13.9,29.93,West,269,4.0,7.0,35,0.00,,,0.00,Wunderground v.1.15,2013-04-03 16:40:00,
2013-04-03 12:45:00,39.6,12.8,29.93,WSW,246,4.0,4.0,33,0.00,,,0.00,Wunderground v.1.15,2013-04-03 16:45:00,
2013-04-03 12:50:00,39.6,12.1,29.93,North,352,2.0,7.0,32,0.00,,,0.00,Wunderground v.1.15,2013-04-03 16:50:00,
2013-04-03 12:55:00,39.9,8.6,29.93,West,268,4.0,6.0,27,0.00,,,0.00,Wunderground v.1.15,2013-04-03 16:55:00,
2013-04-03 13:00:00,39.8,9.3,29.92,WSW,249,6.0,8.0,28,0.00,,,0.00,Wunderground v.1.15,2013-04-03 17:00:00,
2013-04-03 13:06:00,39.8,12.3,29.92,SSE,159,2.0,6.0,32,0.00,,,0.00,Wunderground v.1.15,2013-04-03 17:06:00,
2013-04-03 13:11:00,39.9,9.4,29.92,WSW,246,4.0,7.0,28,0.00,,,0.00,Wunderground v.1.15,2013-04-03 17:11:00,
2013-04-03 13:17:00,40.3,9.7,29.92,South,184,1.0,4.0,28,0.00,,,0.00,Wunderground v.1.15,2013-04-03 17:17:00,
2013-04-03 13:22:00,41.1,11.2,29.92,SW,214,2.0,4.0,29,0.00,,,0.00,Wunderground v.1.15,2013-04-03 17:22:00,
2013-04-03 13:27:00,41.2,8.8,29.91,WSW,238,7.0,7.0,26,0.00,,,0.00,Wunderground v.1.15,2013-04-03 17:27:00,
2013-04-03 13:32:00,40.9,8.6,29.91,WSW,258,4.0,10.0,26,0.00,,,0.00,Wunderground v.1.15,2013-04-03 17:32:00,
2013-04-03 13:37:00,41.2,9.7,29.91,WSW,256,0.0,6.0,27,0.00,,,0.00,Wunderground v.1.15,2013-04-03 17:37:00,
2013-04-03 13:42:00,41.3,7.2,29.92,WNW,302,8.0,8.0,24,0.00,,,0.00,Wunderground v.1.15,2013-04-03 17:42:00,
2013-04-03 13:47:00,41.8,11.0,29.92,SW,224,2.0,6.0,28,0.00,,,0.00,Wunderground v.1.15,2013-04-03 17:47:00,
2013-04-03 13:52:00,41.9,9.5,29.92,SW,222,2.0,9.0,26,0.00,,,0.00,Wunderground v.1.15,2013-04-03 17:52:00,
2013-04-03 13:57:00,41.6,10.9,29.92,South,190,2.0,8.0,28,0.00,,,0.00,Wunderground v.1.15,2013-04-03 17:57:00,
2013-04-03 14:03:00,41.5,13.1,29.92,WSW,239,6.0,8.0,31,0.00,,,0.00,Wunderground v.1.15,2013-04-03 18:03:00,
2013-04-03 14:08:00,41.5,9.9,29.92,SW,227,4.0,10.0,27,0.00,,,0.00,Wunderground v.1.15,2013-04-03 18:08:00,
2013-04-03 14:13:00,41.9,11.1,29.92,SW,224,6.0,10.0,28,0.00,,,0.00,Wunderground v.1.15,2013-04-03 18:13:00,
2013-04-03 14:19:00,41.8,11.0,29.92,West,276,4.0,7.0,28,0.00,,,0.00,Wunderground v.1.15,2013-04-03 18:19:00,
2013-04-03 14:24:00,41.3,9.8,29.92,WNW,286,2.0,9.0,27,0.00,,,0.00,Wunderground v.1.15,2013-04-03 18:24:00,
2013-04-03 14:29:00,41.5,9.9,29.92,WSW,256,8.0,8.0,27,0.00,,,0.00,Wunderground v.1.15,2013-04-03 18:29:00,
2013-04-03 14:34:00,41.2,9.7,29.92,West,261,7.0,8.0,27,0.00,,,0.00,Wunderground v.1.15,2013-04-03 18:34:00,
2013-04-03 14:40:00,41.2,12.1,29.92,WSW,258,2.0,8.0,30,0.00,,,0.00,Wunderground v.1.15,2013-04-03 18:40:00,
2013-04-03 14:45:00,41.3,12.1,29.92,WNW,294,4.0,8.0,30,0.00,,,0.00,Wunderground v.1.15,2013-04-03 18:45:00,
2013-04-03 14:50:00,41.5,12.3,29.92,West,259,1.0,7.0,30,0.00,,,0.00,Wunderground v.1.15,2013-04-03 18:50:00,
2013-04-03 14:55:00,41.6,10.0,29.92,SW,231,2.0,6.0,27,0.00,,,0.00,Wunderground v.1.15,2013-04-03 18:55:00,
2013-04-03 15:00:00,41.6,9.2,29.92,SW,235,2.0,8.0,26,0.00,,,0.00,Wunderground v.1.15,2013-04-03 19:00:00,
2013-04-03 15:05:00,41.6,10.9,29.92,West,263,8.0,8.0,28,0.00,,,0.00,Wunderground v.1.15,2013-04-03 19:05:00,
2013-04-03 15:11:00,41.3,11.4,29.92,WSW,255,9.0,9.0,29,0.00,,,0.00,Wunderground v.1.15,2013-04-03 19:11:00,
2013-04-03 15:16:00,41.1,10.4,29.92,WSW,238,6.0,7.0,28,0.00,,,0.00,Wunderground v.1.15,2013-04-03 19:16:00,
2013-04-03 15:21:00,41.3,10.6,29.92,West,276,1.0,7.0,28,0.00,,,0.00,Wunderground v.1.15,2013-04-03 19:21:00,
2013-04-03 15:27:00,41.1,10.4,29.91,WNW,290,4.0,7.0,28,0.00,,,0.00,Wunderground v.1.15,2013-04-03 19:27:00,
2013-04-03 15:32:00,41.2,10.5,29.91,ENE,73,1.0,7.0,28,0.00,,,0.00,Wunderground v.1.15,2013-04-03 19:32:00,
2013-04-03 15:37:00,41.5,9.9,29.91,West,268,7.0,7.0,27,0.00,,,0.00,Wunderground v.1.15,2013-04-03 19:37:00,
2013-04-03 15:42:00,41.6,9.2,29.91,SW,235,4.0,7.0,26,0.00,,,0.00,Wunderground v.1.15,2013-04-03 19:42:00,
2013-04-03 15:47:00,41.8,11.0,29.91,WSW,241,4.0,7.0,28,0.00,,,0.00,Wunderground v.1.15,2013-04-03 19:47:00,
2013-04-03 15:52:00,41.8,11.8,29.91,West,273,6.0,7.0,29,0.00,,,0.00,Wunderground v.1.15,2013-04-03 19:52:00,
2013-04-03 15:57:00,41.6,11.6,29.91,SSW,207,7.0,7.0,29,0.00,,,0.00,Wunderground v.1.15,2013-04-03 19:57:00,
2013-04-03 16:02:00,41.8,10.2,29.91,WSW,246,6.0,7.0,27,0.00,,,0.00,Wunderground v.1.15,2013-04-03 20:02:00,
2013-04-03 16:07:00,41.2,12.1,29.91,WSW,256,2.0,7.0,30,0.00,,,0.00,Wunderground v.1.15,2013-04-03 20:07:00,
2013-04-03 16:13:00,40.6,12.3,29.92,WSW,258,4.0,7.0,31,0.00,,,0.00,Wunderground v.1.15,2013-04-03 20:13:00,
2013-04-03 16:18:00,40.6,7.5,29.92,WSW,245,2.0,7.0,25,0.00,,,0.00,Wunderground v.1.15,2013-04-03 20:18:00,
2013-04-03 16:23:00,40.9,9.4,29.92,WSW,237,6.0,8.0,27,0.00,,,0.00,Wunderground v.1.15,2013-04-03 20:23:00,
2013-04-03 16:29:00,41.1,9.6,29.91,South,170,6.0,8.0,27,0.00,,,0.00,Wunderground v.1.15,2013-04-03 20:29:00,
2013-04-03 16:34:00,41.1,8.8,29.91,SW,217,8.0,8.0,26,0.00,,,0.00,Wunderground v.1.15,2013-04-03 20:34:00,
2013-04-03 16:39:00,40.9,11.0,29.91,WSW,245,7.0,10.0,29,0.00,,,0.00,Wunderground v.1.15,2013-04-03 20:39:00,
2013-04-03 16:44:00,40.8,10.9,29.92,WSW,252,4.0,10.0,29,0.00,,,0.00,Wunderground v.1.15,2013-04-03 20:44:00,
2013-04-03 16:49:00,40.6,10.0,29.92,WNW,285,7.0,7.0,28,0.00,,,0.00,Wunderground v.1.15,2013-04-03 20:49:00,
2013-04-03 16:54:00,40.6,7.5,29.92,WNW,286,4.0,7.0,25,0.00,,,0.00,Wunderground v.1.15,2013-04-03 20:54:00,
2013-04-03 17:00:00,40.6,7.5,29.92,West,266,6.0,10.0,25,0.00,,,0.00,Wunderground v.1.15,2013-04-03 21:00:00,
2013-04-03 17:05:00,40.6,9.2,29.92,WSW,251,0.0,5.0,27,0.00,,,0.00,Wunderground v.1.15,2013-04-03 21:05:00,
2013-04-03 17:10:00,40.8,9.3,29.92,WSW,245,2.0,9.0,27,0.00,,,0.00,Wunderground v.1.15,2013-04-03 21:10:00,
2013-04-03 17:16:00,40.5,9.9,29.93,WNW,282,2.0,4.0,28,0.00,,,0.00,Wunderground v.1.15,2013-04-03 21:16:00,
2013-04-03 17:21:00,40.6,10.0,29.93,SW,220,4.0,6.0,28,0.00,,,0.00,Wunderground v.1.15,2013-04-03 21:21:00,
2013-04-03 17:26:00,40.6,10.0,29.93,West,272,2.0,4.0,28,0.00,,,0.00,Wunderground v.1.15,2013-04-03 21:26:00,
2013-04-03 17:31:00,40.3,8.9,29.93,WSW,237,7.0,8.0,27,0.00,,,0.00,Wunderground v.1.15,2013-04-03 21:31:00,
2013-04-03 17:37:00,40.6,6.6,29.93,SW,234,7.0,7.0,24,0.00,,,0.00,Wunderground v.1.15,2013-04-03 21:37:00,
2013-04-03 17:42:00,40.5,5.5,29.94,SSE,149,1.0,7.0,23,0.00,,,0.00,Wunderground v.1.15,2013-04-03 21:42:00,
2013-04-03 17:47:00,40.1,8.7,29.94,SW,235,2.0,6.0,27,0.00,,,0.00,Wunderground v.1.15,2013-04-03 21:47:00,
2013-04-03 17:52:00,39.6,8.3,29.94,WSW,241,2.0,6.0,27,0.00,,,0.00,Wunderground v.1.15,2013-04-03 21:52:00,
2013-04-03 17:57:00,39.2,8.0,29.94,WSW,246,2.0,4.0,27,0.00,,,0.00,Wunderground v.1.15,2013-04-03 21:57:00,
2013-04-03 18:02:00,39.2,12.5,29.94,WSW,252,2.0,6.0,33,0.00,,,0.00,Wunderground v.1.15,2013-04-03 22:02:00,
2013-04-03 18:07:00,39.1,11.0,29.94,SW,217,6.0,7.0,31,0.00,,,0.00,Wunderground v.1.15,2013-04-03 22:07:00,
2013-04-03 18:13:00,39.2,8.0,29.95,SSW,197,4.0,7.0,27,0.00,,,0.00,Wunderground v.1.15,2013-04-03 22:13:00,
2013-04-03 18:18:00,38.9,10.1,29.95,SW,231,2.0,4.0,30,0.00,,,0.00,Wunderground v.1.15,2013-04-03 22:18:00,
2013-04-03 18:23:00,38.8,10.0,29.95,WSW,248,4.0,8.0,30,0.00,,,0.00,Wunderground v.1.15,2013-04-03 22:23:00,
2013-04-03 18:29:00,38.5,11.8,29.96,SW,234,2.0,7.0,33,0.00,,,0.00,Wunderground v.1.15,2013-04-03 22:29:00,
2013-04-03 18:34:00,38.3,10.3,29.96,WSW,239,2.0,7.0,31,0.00,,,0.00,Wunderground v.1.15,2013-04-03 22:34:00,
2013-04-03 18:39:00,38.2,10.2,29.96,SW,220,4.0,11.0,31,0.00,,,0.00,Wunderground v.1.15,2013-04-03 22:39:00,
2013-04-03 18:44:00,37.9,9.2,29.98,South,184,6.0,11.0,30,0.00,,,0.00,Wunderground v.1.15,2013-04-03 22:44:00,
2013-04-03 18:49:00,37.5,11.0,29.98,WSW,244,4.0,8.0,33,0.00,,,0.00,Wunderground v.1.15,2013-04-03 22:49:00,
2013-04-03 18:54:00,37.3,10.1,29.98,WSW,239,4.0,8.0,32,0.00,,,0.00,Wunderground v.1.15,2013-04-03 22:54:00,
2013-04-03 18:59:00,37.0,9.8,29.99,WSW,249,2.0,6.0,32,0.00,,,0.00,Wunderground v.1.15,2013-04-03 22:59:00,
2013-04-03 19:04:00,36.6,13.9,29.99,WSW,251,0.0,6.0,39,0.00,,,0.00,Wunderground v.1.15,2013-04-03 23:04:00,
2013-04-03 19:10:00,36.3,13.7,29.99,WSW,241,0.0,2.0,39,0.00,,,0.00,Wunderground v.1.15,2013-04-03 23:10:00,
2013-04-03 19:15:00,36.3,13.7,30.00,SW,234,0.0,2.0,39,0.00,,,0.00,Wunderground v.1.15,2013-04-03 23:15:00,
2013-04-03 19:20:00,36.0,13.4,30.00,WSW,246,0.0,0.0,39,0.00,,,0.00,Wunderground v.1.15,2013-04-03 23:20:00,
2013-04-03 19:25:00,35.8,12.6,30.00,SW,235,0.0,0.0,38,0.00,,,0.00,Wunderground v.1.15,2013-04-03 23:25:00,
2013-04-03 19:30:00,35.3,12.2,30.01,West,263,0.0,0.0,38,0.00,,,0.00,Wunderground v.1.15,2013-04-03 23:30:00,
2013-04-03 19:35:00,35.2,13.8,30.01,WSW,244,0.0,0.0,41,0.00,,,0.00,Wunderground v.1.15,2013-04-03 23:35:00,
2013-04-03 19:40:00,35.0,14.7,30.01,West,259,0.0,0.0,43,0.00,,,0.00,Wunderground v.1.15,2013-04-03 23:40:00,
2013-04-03 19:45:00,34.9,13.5,30.01,WSW,254,0.0,0.0,41,0.00,,,0.00,Wunderground v.1.15,2013-04-03 23:45:00,
2013-04-03 19:51:00,34.9,13.5,30.01,SW,235,0.0,0.0,41,0.00,,,0.00,Wunderground v.1.15,2013-04-03 23:51:00,
2013-04-03 19:56:00,34.9,14.6,30.01,SW,228,0.0,0.0,43,0.00,,,0.00,Wunderground v.1.15,2013-04-03 23:56:00,
2013-04-03 20:01:00,34.7,13.9,30.02,WSW,256,0.0,0.0,42,0.00,,,0.00,Wunderground v.1.15,2013-04-04 00:01:00,
2013-04-03 20:06:00,34.7,13.9,30.02,SW,227,0.0,0.0,42,0.00,,,0.00,Wunderground v.1.15,2013-04-04 00:06:00,
2013-04-03 20:11:00,34.7,14.5,30.04,WSW,254,0.0,0.0,43,0.00,,,0.00,Wunderground v.1.15,2013-04-04 00:11:00,
2013-04-03 20:17:00,34.7,14.5,30.04,WSW,251,0.0,0.0,43,0.00,,,0.00,Wunderground v.1.15,2013-04-04 00:17:00,
2013-04-03 20:22:00,34.7,14.5,30.04,West,268,0.0,0.0,43,0.00,,,0.00,Wunderground v.1.15,2013-04-04 00:22:00,
2013-04-03 20:27:00,34.4,13.6,30.05,WSW,246,0.0,0.0,42,0.00,,,0.00,Wunderground v.1.15,2013-04-04 00:27:00,
2013-04-03 20:32:00,34.6,14.4,30.05,WSW,239,0.0,0.0,43,0.00,,,0.00,Wunderground v.1.15,2013-04-04 00:32:00,
2013-04-03 20:37:00,34.4,14.2,30.05,WSW,238,0.0,0.0,43,0.00,,,0.00,Wunderground v.1.15,2013-04-04 00:37:00,
2013-04-03 20:42:00,34.4,14.2,30.06,SW,220,0.0,0.0,43,0.00,,,0.00,Wunderground v.1.15,2013-04-04 00:42:00,
2013-04-03 20:47:00,34.1,13.4,30.06,SW,228,0.0,0.0,42,0.00,,,0.00,Wunderground v.1.15,2013-04-04 00:47:00,
2013-04-03 20:52:00,34.0,13.8,30.06,SW,228,0.0,0.0,43,0.00,,,0.00,Wunderground v.1.15,2013-04-04 00:52:00,
2013-04-03 20:57:00,34.0,12.2,30.07,SW,214,0.0,0.0,40,0.00,,,0.00,Wunderground v.1.15,2013-04-04 00:57:00,
2013-04-03 21:03:00,33.8,13.1,30.07,SSW,198,0.0,0.0,42,0.00,,,0.00,Wunderground v.1.15,2013-04-04 01:03:00,
2013-04-03 21:08:00,33.8,14.2,30.07,SW,225,0.0,0.0,44,0.00,,,0.00,Wunderground v.1.15,2013-04-04 01:08:00,
2013-04-03 21:13:00,33.8,14.2,30.08,WSW,241,0.0,0.0,44,0.00,,,0.00,Wunderground v.1.15,2013-04-04 01:13:00,
2013-04-03 21:18:00,33.7,15.1,30.08,SW,221,0.0,0.0,46,0.00,,,0.00,Wunderground v.1.15,2013-04-04 01:18:00,
2013-04-03 21:23:00,33.4,16.7,30.08,SW,225,0.0,0.0,50,0.00,,,0.00,Wunderground v.1.15,2013-04-04 01:23:00,
2013-04-03 21:28:00,32.9,16.7,30.08,WSW,254,0.0,0.0,51,0.00,,,0.00,Wunderground v.1.15,2013-04-04 01:28:00,
2013-04-03 21:33:00,32.9,15.3,30.08,WSW,244,0.0,0.0,48,0.00,,,0.00,Wunderground v.1.15,2013-04-04 01:33:00,
2013-04-03 21:38:00,32.9,17.2,30.08,WSW,242,0.0,0.0,52,0.00,,,0.00,Wunderground v.1.15,2013-04-04 01:38:00,
2013-04-03 21:44:00,32.8,16.6,30.08,WSW,241,0.0,0.0,51,0.00,,,0.00,Wunderground v.1.15,2013-04-04 01:44:00,
2013-04-03 21:49:00,32.8,15.2,30.08,SW,234,0.0,0.0,48,0.00,,,0.00,Wunderground v.1.15,2013-04-04 01:49:00,
2013-04-03 21:54:00,32.7,17.0,30.08,SW,215,0.0,0.0,52,0.00,,,0.00,Wunderground v.1.15,2013-04-04 01:54:00,
2013-04-03 21:59:00,32.8,16.6,30.09,West,265,0.0,0.0,51,0.00,,,0.00,Wunderground v.1.15,2013-04-04 01:59:00,
2013-04-03 22:04:00,32.7,16.1,30.09,West,265,0.0,0.0,50,0.00,,,0.00,Wunderground v.1.15,2013-04-04 02:04:00,
2013-04-03 22:09:00,32.5,15.4,30.09,WSW,237,0.0,0.0,49,0.00,,,0.00,Wunderground v.1.15,2013-04-04 02:09:00,
2013-04-03 22:14:00,32.4,17.6,30.09,WSW,239,0.0,0.0,54,0.00,,,0.00,Wunderground v.1.15,2013-04-04 02:14:00,
2013-04-03 22:19:00,32.5,16.8,30.09,West,265,0.0,0.0,52,0.00,,,0.00,Wunderground v.1.15,2013-04-04 02:19:00,
2013-04-03 22:25:00,32.2,16.5,30.09,SW,231,0.0,0.0,52,0.00,,,0.00,Wunderground v.1.15,2013-04-04 02:25:00,
2013-04-03 22:30:00,32.4,16.7,30.10,West,263,0.0,0.0,52,0.00,,,0.00,Wunderground v.1.15,2013-04-04 02:30:00,
2013-04-03 22:35:00,32.2,17.4,30.10,West,261,0.0,0.0,54,0.00,,,0.00,Wunderground v.1.15,2013-04-04 02:35:00,
2013-04-03 22:40:00,31.9,17.5,30.10,SSW,193,0.0,0.0,55,0.00,,,0.00,Wunderground v.1.15,2013-04-04 02:40:00,
2013-04-03 22:45:00,31.9,17.1,30.09,WSW,245,0.0,0.0,54,0.00,,,0.00,Wunderground v.1.15,2013-04-04 02:45:00,
2013-04-03 22:50:00,31.9,16.7,30.09,SW,235,0.0,0.0,53,0.00,,,0.00,Wunderground v.1.15,2013-04-04 02:50:00,
2013-04-03 22:56:00,31.8,18.3,30.09,SW,232,0.0,0.0,57,0.00,,,0.00,Wunderground v.1.15,2013-04-04 02:56:00,
2013-04-03 23:01:00,31.6,17.7,30.10,West,263,1.0,4.0,56,0.00,,,0.00,Wunderground v.1.15,2013-04-04 03:01:00,
2013-04-03 23:06:00,31.6,16.8,30.10,WSW,256,1.0,2.0,54,0.00,,,0.00,Wunderground v.1.15,2013-04-04 03:06:00,
2013-04-03 23:12:00,31.6,17.7,30.10,SW,232,4.0,4.0,56,0.00,,,0.00,Wunderground v.1.15,2013-04-04 03:12:00,
2013-04-03 23:17:00,31.6,16.8,30.10,WSW,246,2.0,4.0,54,0.00,,,0.00,Wunderground v.1.15,2013-04-04 03:17:00,
2013-04-03 23:22:00,31.8,17.5,30.10,WSW,246,2.0,6.0,55,0.00,,,0.00,Wunderground v.1.15,2013-04-04 03:22:00,
2013-04-03 23:27:00,31.8,17.9,30.11,WSW,237,4.0,4.0,56,0.00,,,0.00,Wunderground v.1.15,2013-04-04 03:27:00,
2013-04-03 23:32:00,31.6,17.7,30.11,WSW,242,2.0,6.0,56,0.00,,,0.00,Wunderground v.1.15,2013-04-04 03:32:00,
2013-04-03 23:37:00,31.6,17.3,30.11,WSW,258,0.0,2.0,55,0.00,,,0.00,Wunderground v.1.15,2013-04-04 03:37:00,
2013-04-03 23:43:00,31.3,17.8,30.11,WSW,258,0.0,2.0,57,0.00,,,0.00,Wunderground v.1.15,2013-04-04 03:43:00,
2013-04-03 23:48:00,31.3,17.0,30.11,SW,217,1.0,4.0,55,0.00,,,0.00,Wunderground v.1.15,2013-04-04 03:48:00,
2013-04-03 23:53:00,31.3,17.4,30.11,SW,224,0.0,4.0,56,0.00,,,0.00,Wunderground v.1.15,2013-04-04 03:53:00,
2013-04-03 23:58:00,31.2,16.9,30.12,SW,224,0.0,2.0,55,0.00,,,0.00,Wunderground v.1.15,2013-04-04 03:58:00,